Time;durP1;ratioP1;P1;durP2;ratioP2;P2;SDS_P1;SDS_P2;PMS_P1;PMS_P2;Temp;Humidity;BMP_temperature;BMP_pressure;BME280_temperature;BME280_humidity;BME280_pressure;Samples;Min_cycle;Max_cycle;Signal;HPM_P1;HPM_P2
2022/11/05 00:10:52;;;;;;;;;21.50;20.00;;;;;10.53;71.30;101529.81;4995470;28;45473;-67
2022/11/05 00:19:05;;;;;;;;;13.00;13.00;;;;;10.53;71.41;101549.34;4996550;28;45421;-67
2022/11/05 00:26:58;;;;;;;;;17.00;15.00;;;;;9.90;71.87;101445.53;4996109;28;45788;-67
2022/11/05 00:29:23;;;;;;;;;17.00;11.00;;;;;10.55;71.81;101558.16;4995846;28;45339;-67
2022/11/05 00:31:49;;;;;;;;;9.00;9.00;;;;;10.51;72.19;101551.19;4996311;28;45354;-67
2022/11/05 00:34:14;;;;;;;;;12.00;11.25;;;;;10.46;72.18;101523.88;4996480;28;45373;-67
2022/11/05 00:36:39;;;;;;;;;11.00;10.00;;;;;10.41;72.25;101526.75;5027684;28;45680;-67
2022/11/05 00:39:05;;;;;;;;;9.50;9.50;;;;;10.53;72.23;101546.66;4995644;28;45509;-67
2022/11/05 00:41:30;;;;;;;;;13.50;13.25;;;;;10.48;72.24;101521.16;4996164;28;45372;-66
2022/11/05 00:49:28;;;;;;;;;9.75;9.75;;;;;10.27;72.23;101502.47;4973806;28;46170;-67
2022/11/05 00:49:35;;;;;;;;;15.25;11.50;;;;;10.41;72.09;101525.91;4973505;28;45451;-67
2022/11/05 00:54:45;;;;;;;;;10.00;10.00;;;;;10.57;71.94;101556.25;4974139;28;45551;-67
2022/11/05 00:57:10;;;;;;;;;10.50;9.00;;;;;10.53;72.37;101546.66;4973171;28;47150;-68
2022/11/05 00:59:35;;;;;;;;;12.25;11.00;;;;;10.62;71.80;101565.84;4973229;28;45514;-67
2022/11/05 01:02:01;;;;;;;;;10.25;9.25;;;;;10.44;71.76;101526.59;4973700;28;45319;-69
2022/11/05 01:04:26;;;;;;;;;11.00;10.50;;;;;10.60;72.22;101547.25;4973443;28;45423;-69
2022/11/05 01:06:51;;;;;;;;;11.75;10.50;;;;;10.47;71.75;101514.06;4973405;28;46553;-68
2022/11/05 01:09:17;;;;;;;;;11.00;11.00;;;;;10.33;72.06;101494.22;4973298;28;45491;-68
2022/11/05 01:11:44;;;;;;;;;12.25;11.50;;;;;10.63;72.20;101539.09;4957103;28;45480;-69
2022/11/05 01:14:12;;;;;;;;;8.75;8.75;;;;;10.63;70.80;101541.75;4973058;28;45553;-69
2022/11/05 01:16:38;;;;;;;;;13.25;12.00;;;;;10.59;70.81;101533.06;4972849;28;45560;-69
2022/11/05 01:19:06;;;;;;;;;11.00;9.25;;;;;10.59;71.14;101534.84;4973124;28;45671;-69
2022/11/05 01:21:31;;;;;;;;;10.00;10.00;;;;;10.51;70.55;101519.19;4973436;28;45512;-69
2022/11/05 01:23:57;;;;;;;;;10.75;10.75;;;;;10.51;70.51;101542.34;4990518;28;45426;-68
2022/11/05 01:26:22;;;;;;;;;8.25;8.25;;;;;10.25;70.59;101499.03;4995119;28;45460;-69
2022/11/05 01:28:55;;;;;;;;;19.00;16.50;;;;;10.29;70.57;101511.28;4994950;28;45532;-69
2022/11/05 01:31:22;;;;;;;;;56.50;46.25;;;;;10.48;70.33;101553.16;4995036;28;45342;-68
2022/11/05 01:33:47;;;;;;;;;41.75;38.25;;;;;10.32;70.44;101532.47;4995184;28;45628;-69
2022/11/05 01:36:13;;;;;;;;;41.75;35.75;;;;;10.44;70.61;101557.75;4994567;28;46182;-69
2022/11/05 01:38:38;;;;;;;;;48.50;39.00;;;;;10.22;70.87;101526.69;4994981;28;45417;-69
2022/11/05 01:41:05;;;;;;;;;31.25;27.50;;;;;10.39;70.41;101559.75;4994719;28;45437;-68
2022/11/05 01:43:44;;;;;;;;;28.50;21.75;;;;;10.38;70.30;101563.38;4993866;28;45433;-69
2022/11/05 01:46:10;;;;;;;;;15.50;15.50;;;;;10.32;70.69;101548.47;4994648;28;46586;-68
2022/11/05 01:48:36;;;;;;;;;32.00;26.50;;;;;10.23;70.49;101538.22;4994670;28;45414;-68
2022/11/05 01:51:07;;;;;;;;;21.50;21.00;;;;;10.34;70.32;101564.41;5009703;28;45528;-68
2022/11/05 01:53:35;;;;;;;;;10.50;10.25;;;;;10.33;70.62;101554.69;4995044;28;45585;-68
2022/11/05 01:56:09;;;;;;;;;18.50;16.25;;;;;10.31;70.36;101554.75;4994366;28;45292;-68
2022/11/05 01:58:49;;;;;;;;;9.50;9.25;;;;;10.31;71.00;101561.88;5009733;28;45369;-68
2022/11/05 02:01:19;;;;;;;;;16.00;14.75;;;;;10.31;71.27;101562.75;4994402;28;45338;-68
2022/11/05 02:03:47;;;;;;;;;12.25;12.25;;;;;10.22;70.93;101553.38;4994782;28;45704;-69
2022/11/05 02:06:15;;;;;;;;;14.75;13.00;;;;;10.26;71.19;101557.63;4993172;28;46805;-69
2022/11/05 02:09:18;;;;;;;;;14.50;13.75;;;;;10.23;71.65;101551.56;4994749;28;45708;-69
2022/11/05 02:11:45;;;;;;;;;10.75;9.50;;;;;10.16;72.07;101547.44;4994390;28;45435;-69
2022/11/05 02:14:11;;;;;;;;;13.25;9.25;;;;;10.22;71.88;101547.19;4994245;28;45824;-68
2022/11/05 02:16:42;;;;;;;;;20.75;19.25;;;;;10.07;71.95;101524.72;4993871;28;46575;-68
2022/11/05 02:19:37;;;;;;;;;29.75;26.75;;;;;10.20;71.71;101547.25;4994332;28;45426;-70
2022/11/05 02:22:55;;;;;;;;;38.00;31.75;;;;;10.11;71.32;101526.31;5009435;28;45447;-68
2022/11/05 02:25:51;;;;;;;;;22.00;17.75;;;;;10.22;71.33;101547.19;5009193;28;45586;-68
2022/11/05 02:28:35;;;;;;;;;9.00;9.00;;;;;10.23;71.42;101559.53;4993186;28;45576;-68
2022/11/05 02:31:31;;;;;;;;;14.25;14.00;;;;;10.23;71.48;101560.44;4993997;28;45499;-69
2022/11/05 02:34:06;;;;;;;;;15.25;13.75;;;;;10.10;71.82;101548.59;4994117;28;45362;-68
2022/11/05 02:36:51;;;;;;;;;14.75;13.75;;;;;10.03;71.84;101545.31;4994102;28;45486;-68
2022/11/05 02:39:43;;;;;;;;;19.50;19.50;;;;;10.12;71.81;101569.84;4994349;28;46749;-68
2022/11/05 02:42:27;;;;;;;;;0.75;0.75;;;;;10.15;71.82;101559.03;4994646;28;45513;-68
2022/11/05 02:45:01;;;;;;;;;11.00;10.50;;;;;10.16;71.75;101558.97;4994503;28;45540;-70
2022/11/05 02:47:31;;;;;;;;;8.50;8.50;;;;;10.10;72.28;101554.78;5009819;28;45593;-68
2022/11/05 02:50:33;;;;;;;;;12.75;11.00;;;;;9.96;72.63;101524.31;4994663;28;45449;-68
2022/11/05 02:53:00;;;;;;;;;10.00;8.75;;;;;10.00;72.21;101529.47;4994680;28;45531;-68
2022/11/05 02:55:35;;;;;;;;;8.50;7.50;;;;;10.17;72.08;101550.03;4994950;28;45433;-71
2022/11/05 02:58:03;;;;;;;;;14.00;12.50;;;;;10.20;72.46;101555.25;4992209;28;45415;-68
2022/11/05 03:00:39;;;;;;;;;15.25;12.00;;;;;10.20;72.61;101544.59;4993727;28;46098;-68
2022/11/05 03:03:10;;;;;;;;;17.25;13.00;;;;;10.15;72.49;101533.25;4993838;28;45440;-69
2022/11/05 03:05:49;;;;;;;;;15.75;11.50;;;;;10.22;72.74;101523.19;4993892;28;45564;-69
2022/11/05 03:08:37;;;;;;;;;9.75;9.75;;;;;10.24;72.85;101527.50;4994171;28;45676;-69
2022/11/05 03:11:14;;;;;;;;;10.00;8.25;;;;;10.26;72.59;101527.44;4993829;28;45426;-69
2022/11/05 03:14:05;;;;;;;;;7.25;7.00;;;;;10.33;72.92;101539.53;4993851;28;45334;-68
2022/11/05 03:16:34;;;;;;;;;9.25;8.50;;;;;10.35;72.56;101536.84;4992293;28;45381;-68
2022/11/05 03:19:24;;;;;;;;;7.75;6.25;;;;;10.34;72.39;101549.28;4993605;28;45437;-69
2022/11/05 03:21:56;;;;;;;;;12.00;8.50;;;;;10.22;72.08;101542.69;4993498;28;45598;-68
2022/11/05 03:24:45;;;;;;;;;11.50;11.25;;;;;10.30;72.16;101549.47;4993452;28;45897;-68
2022/11/05 03:27:15;;;;;;;;;12.75;12.75;;;;;10.31;72.05;101546.75;4993724;28;45437;-68
2022/11/05 03:29:56;;;;;;;;;11.75;11.00;;;;;10.31;72.26;101530.75;4993503;28;45604;-68
2022/11/05 03:32:23;;;;;;;;;11.00;11.00;;;;;10.22;71.83;101512.50;4993652;28;45515;-69
2022/11/05 03:34:59;;;;;;;;;11.00;9.00;;;;;10.31;72.08;101529.88;4993822;28;45516;-68
2022/11/05 03:37:28;;;;;;;;;6.00;3.50;;;;;10.08;72.07;101502.44;4993403;28;45417;-69
2022/11/05 03:39:59;;;;;;;;;8.00;7.50;;;;;10.07;72.16;101500.75;4996705;28;45394;-68
2022/11/05 03:42:29;;;;;;;;;7.75;7.75;;;;;10.06;72.21;101489.19;4996685;28;45449;-68
2022/11/05 03:44:59;;;;;;;;;8.00;8.00;;;;;10.15;72.09;101500.38;4996986;28;45456;-68
2022/11/05 03:47:31;;;;;;;;;7.00;7.00;;;;;10.31;72.43;101528.09;5011844;28;45439;-69
2022/11/05 03:50:22;;;;;;;;;9.75;8.00;;;;;10.29;72.54;101524.63;4996810;28;45532;-68
2022/11/05 03:52:52;;;;;;;;;8.25;8.25;;;;;10.20;72.62;101503.69;4996232;28;46277;-68
2022/11/05 03:55:24;;;;;;;;;11.50;7.75;;;;;10.29;72.35;101519.28;4996601;28;45346;-68
2022/11/05 03:57:53;;;;;;;;;9.50;9.50;;;;;9.70;72.17;101417.09;4995451;28;45441;-70
2022/11/05 04:00:21;;;;;;;;;12.25;8.25;;;;;10.28;72.31;101509.53;4996800;28;45457;-69
2022/11/05 04:02:46;;;;;;;;;8.00;6.75;;;;;10.15;72.39;101484.38;4996616;28;46137;-67
2022/11/05 04:05:12;;;;;;;;;8.25;6.50;;;;;10.01;72.50;101450.38;5011702;28;45434;-67
2022/11/05 04:13:26;;;;;;;;;4.50;4.50;;;;;10.22;72.51;101481.38;4996085;28;45836;-67
2022/11/05 04:18:38;;;;;;;;;5.75;3.00;;;;;10.43;72.25;101522.22;4996237;28;45362;-67
2022/11/05 04:26:32;;;;;;;;;10.00;7.25;;;;;10.37;72.94;101518.97;4996224;28;45492;-67
2022/11/05 04:31:42;;;;;;;;;5.75;5.25;;;;;10.27;73.43;101497.13;4996279;28;45363;-67
2022/11/05 04:34:07;;;;;;;;;7.25;7.25;;;;;10.50;72.80;101552.16;4995973;28;45323;-66
2022/11/05 04:36:33;;;;;;;;;7.00;4.50;;;;;9.90;72.78;101441.03;4995681;28;45378;-67
2022/11/05 04:38:58;;;;;;;;;5.25;4.75;;;;;10.29;73.16;101503.28;4996172;28;45343;-67
2022/11/05 04:41:24;;;;;;;;;8.75;8.25;;;;;10.56;73.02;101551.84;4996113;28;45435;-67
2022/11/05 04:43:49;;;;;;;;;11.00;8.00;;;;;10.47;72.87;101538.06;4995605;28;45589;-67
2022/11/05 04:46:14;;;;;;;;;7.00;6.25;;;;;10.34;72.78;101514.63;4995827;28;45448;-67
2022/11/05 04:48:40;;;;;;;;;10.25;6.25;;;;;10.55;73.28;101547.47;4995879;28;45499;-67
2022/11/05 04:51:05;;;;;;;;;7.75;7.75;;;;;10.56;72.64;101540.31;4994874;28;45377;-67
2022/11/05 04:53:31;;;;;;;;;7.25;5.50;;;;;10.46;72.89;101533.66;4996022;28;45447;-67
2022/11/05 04:56:17;;;;;;;;;7.50;7.50;;;;;10.51;72.62;101553.84;4994396;28;45273;-67
2022/11/05 04:58:43;;;;;;;;;10.75;7.00;;;;;10.47;72.38;101552.28;5011154;28;45768;-67
2022/11/05 05:01:14;;;;;;;;;5.00;5.00;;;;;10.50;72.34;101567.28;4994413;28;45545;-67
2022/11/05 05:03:39;;;;;;;;;7.00;7.00;;;;;10.32;72.02;101537.81;4995624;28;46196;-68
2022/11/05 05:06:05;;;;;;;;;11.00;5.00;;;;;10.41;72.16;101552.56;4995350;28;45464;-67
2022/11/05 05:08:30;;;;;;;;;5.00;5.00;;;;;10.36;72.44;101550.09;4995584;28;45407;-68
2022/11/05 05:11:00;;;;;;;;;7.75;7.25;;;;;10.50;72.80;101575.28;4977807;28;45400;-67
2022/11/05 05:13:26;;;;;;;;;10.25;10.25;;;;;10.51;72.56;101582.34;4995456;28;46159;-67
2022/11/05 05:15:51;;;;;;;;;10.00;9.25;;;;;9.88;72.57;101466.03;4995042;28;45524;-67
2022/11/05 05:18:16;;;;;;;;;6.50;6.50;;;;;10.37;72.56;101550.97;4996248;28;45358;-66
2022/11/05 05:23:26;;;;;;;;;10.00;8.50;;;;;10.52;73.17;101568.94;4995955;28;45460;-67
2022/11/05 05:25:51;;;;;;;;;7.75;7.75;;;;;10.42;72.85;101552.50;4995371;28;45440;-67
2022/11/05 05:28:16;;;;;;;;;9.00;9.00;;;;;10.02;73.06;101497.41;4995211;28;45393;-67
2022/11/05 05:30:42;;;;;;;;;10.50;9.75;;;;;10.32;73.28;101542.28;4995344;28;45596;-67
2022/11/05 05:33:07;;;;;;;;;15.25;11.00;;;;;10.40;72.90;101557.03;4995275;28;46367;-67
2022/11/05 05:35:33;;;;;;;;;12.25;10.00;;;;;10.11;72.95;101513.00;4994933;28;45382;-67
2022/11/05 05:37:58;;;;;;;;;8.75;8.75;;;;;10.17;72.86;101538.50;4995057;28;45439;-67
2022/11/05 05:40:23;;;;;;;;;8.25;8.25;;;;;10.04;72.44;101517.75;4995035;28;45375;-66
2022/11/05 05:42:54;;;;;;;;;10.75;9.00;;;;;10.15;72.09;101545.69;4995024;28;45368;-67
2022/11/05 05:45:19;;;;;;;;;5.50;5.50;;;;;10.38;72.54;101584.72;4995021;28;45406;-67
2022/11/05 05:47:44;;;;;;;;;8.75;8.75;;;;;10.01;72.42;101525.84;4994973;28;45322;-67
2022/11/05 05:50:10;;;;;;;;;8.25;8.00;;;;;10.36;72.56;101583.91;4994979;28;45385;-67
2022/11/05 05:52:35;;;;;;;;;12.00;10.00;;;;;10.34;71.98;101583.06;4995140;28;45820;-67
2022/11/05 05:55:00;;;;;;;;;10.75;8.25;;;;;10.31;72.43;101576.09;4994744;28;45480;-67
2022/11/05 05:57:26;;;;;;;;;8.25;6.75;;;;;10.18;72.11;101558.91;4994954;28;45427;-67
2022/11/05 05:59:51;;;;;;;;;8.00;6.75;;;;;10.22;72.00;101565.84;4995103;28;45596;-67
2022/11/05 06:02:16;;;;;;;;;6.75;6.75;;;;;10.22;72.48;101580.03;4994812;28;46603;-68
2022/11/05 06:04:42;;;;;;;;;7.00;7.00;;;;;10.23;72.51;101586.22;4994513;28;45464;-67
2022/11/05 06:07:07;;;;;;;;;9.25;7.25;;;;;10.18;72.83;101585.56;4994714;28;45359;-68
2022/11/05 06:09:32;;;;;;;;;5.25;5.25;;;;;10.20;72.95;101583.69;5010022;28;45400;-68
2022/11/05 06:11:58;;;;;;;;;7.00;7.00;;;;;10.22;72.42;101587.16;5009606;28;48127;-68
2022/11/05 06:14:23;;;;;;;;;6.25;5.00;;;;;10.19;72.74;101582.84;4994337;28;45365;-68
2022/11/05 06:16:48;;;;;;;;;5.25;4.00;;;;;9.96;73.04;101550.97;4994667;28;45538;-67
2022/11/05 06:19:14;;;;;;;;;4.25;4.25;;;;;10.12;72.83;101589.34;5026408;28;45613;-68
2022/11/05 06:21:39;;;;;;;;;7.75;5.50;;;;;10.18;72.85;101598.91;4994402;28;45402;-67
2022/11/05 06:24:05;;;;;;;;;6.75;5.25;;;;;10.06;73.47;101584.31;4994436;28;45491;-67
2022/11/05 06:26:30;;;;;;;;;5.00;5.00;;;;;10.13;72.90;101595.56;4994690;28;45376;-67
2022/11/05 06:28:56;;;;;;;;;2.00;2.00;;;;;9.98;73.10;101571.31;4993403;28;45504;-67
2022/11/05 06:31:22;;;;;;;;;7.25;5.75;;;;;9.99;72.93;101572.16;4994170;28;47585;-67
2022/11/05 06:33:47;;;;;;;;;8.25;6.00;;;;;10.19;73.27;101609.50;4994184;28;45482;-67
2022/11/05 06:36:17;;;;;;;;;5.75;5.75;;;;;10.06;73.48;101585.16;4994238;28;45344;-67
2022/11/05 06:38:43;;;;;;;;;9.00;7.00;;;;;10.19;73.41;101601.50;4994410;28;45630;-68
2022/11/05 06:41:08;;;;;;;;;10.00;7.00;;;;;10.17;73.87;101598.03;4994110;28;45367;-67
2022/11/05 06:43:33;;;;;;;;;8.00;6.25;;;;;9.93;73.45;101541.31;4994028;28;45502;-67
2022/11/05 06:46:01;;;;;;;;;4.25;4.25;;;;;10.01;73.71;101572.97;4993071;28;45366;-67
2022/11/05 06:48:27;;;;;;;;;5.00;5.00;;;;;10.26;74.10;101610.94;4994335;28;45333;-67
2022/11/05 06:50:53;;;;;;;;;11.75;10.50;;;;;10.08;73.47;101585.97;4994094;28;45985;-67
2022/11/05 06:53:19;;;;;;;;;12.00;9.25;;;;;10.27;73.73;101612.69;4993937;28;45439;-67
2022/11/05 06:55:46;;;;;;;;;10.25;10.25;;;;;10.28;73.99;101610.88;4994369;28;45405;-67
2022/11/05 06:58:12;;;;;;;;;17.00;14.25;;;;;10.29;74.28;101601.97;4993887;28;45466;-67
2022/11/05 07:00:37;;;;;;;;;10.00;10.00;;;;;10.37;74.14;101621.19;4992254;28;45826;-67
2022/11/05 07:03:04;;;;;;;;;12.50;11.25;;;;;10.19;74.72;101584.63;4994221;28;45513;-69
2022/11/05 07:05:30;;;;;;;;;12.25;12.25;;;;;10.37;74.36;101618.50;4994312;28;45643;-68
2022/11/05 07:07:55;;;;;;;;;13.00;11.50;;;;;10.29;73.87;101609.09;4994216;28;45386;-68
2022/11/05 07:10:21;;;;;;;;;14.50;12.50;;;;;10.38;74.55;101600.72;4993472;28;47102;-68
2022/11/05 07:12:46;;;;;;;;;14.00;6.75;;;;;10.52;74.26;101610.75;4994679;28;45428;-69
2022/11/05 07:15:12;;;;;;;;;13.25;13.00;;;;;10.24;74.51;101556.84;4997033;28;45329;-69
2022/11/05 07:17:39;;;;;;;;;11.25;11.00;;;;;10.56;74.51;101615.03;4997504;28;45556;-69
2022/11/05 07:20:05;;;;;;;;;15.25;11.50;;;;;10.38;74.19;101574.91;5029051;28;46100;-69
2022/11/05 07:22:31;;;;;;;;;11.00;11.00;;;;;10.56;74.11;101597.19;4996829;28;45530;-69
2022/11/05 07:24:56;;;;;;;;;11.25;10.00;;;;;10.65;74.63;101603.94;4997225;28;45410;-69
2022/11/05 07:27:22;;;;;;;;;11.00;11.00;;;;;10.73;74.50;101612.44;4995939;28;45590;-69
2022/11/05 07:29:47;;;;;;;;;7.50;7.50;;;;;10.82;74.75;101621.81;4996915;28;45932;-69
2022/11/05 07:32:12;;;;;;;;;14.50;11.00;;;;;10.87;75.38;101630.47;4997126;28;45532;-69
2022/11/05 07:34:38;;;;;;;;;4.50;4.50;;;;;10.85;75.34;101629.72;4995979;28;45483;-69
2022/11/05 07:37:03;;;;;;;;;10.00;10.00;;;;;10.83;74.55;101622.72;4996910;28;45366;-68
2022/11/05 07:39:28;;;;;;;;;9.25;8.25;;;;;10.94;74.72;101641.75;4996803;28;46036;-69
2022/11/05 07:41:54;;;;;;;;;8.00;8.00;;;;;10.99;74.20;101639.72;4996748;28;45656;-68
2022/11/05 07:44:20;;;;;;;;;11.00;7.50;;;;;10.74;73.57;101589.28;4996576;28;45661;-68
2022/11/05 07:46:45;;;;;;;;;8.25;7.25;;;;;11.00;73.63;101644.16;4996828;28;45358;-68
2022/11/05 07:49:11;;;;;;;;;7.00;6.00;;;;;10.70;73.24;101590.38;4996930;28;45401;-69
2022/11/05 07:51:36;;;;;;;;;5.00;3.25;;;;;10.58;73.17;101571.34;4996756;28;45303;-69
2022/11/05 07:54:02;;;;;;;;;4.00;3.50;;;;;10.89;72.70;101625.06;4995611;28;45442;-69
2022/11/05 07:56:27;;;;;;;;;3.75;2.75;;;;;11.03;72.94;101649.31;4996751;28;45619;-69
2022/11/05 07:58:52;;;;;;;;;4.25;4.25;;;;;11.00;73.17;101641.47;4996628;28;45485;-68
2022/11/05 08:01:18;;;;;;;;;3.00;3.00;;;;;11.13;73.89;101630.22;4995427;28;45417;-70
2022/11/05 08:03:43;;;;;;;;;4.50;3.75;;;;;11.04;73.34;101595.00;4996773;28;45560;-69
2022/11/05 08:06:08;;;;;;;;;4.00;3.50;;;;;11.16;73.11;101600.69;4996799;28;45441;-69
2022/11/05 08:08:34;;;;;;;;;4.75;4.75;;;;;11.55;73.46;101643.31;5011615;28;48494;-69
2022/11/05 08:11:08;;;;;;;;;7.00;7.00;;;;;11.66;72.24;101649.91;4996436;28;45435;-69
2022/11/05 08:13:34;;;;;;;;;7.00;5.25;;;;;11.74;72.26;101651.28;4996022;28;45412;-69
2022/11/05 08:16:02;;;;;;;;;3.25;2.50;;;;;11.70;72.07;101641.69;4996215;28;45529;-69
2022/11/05 08:18:30;;;;;;;;;5.00;4.00;;;;;11.74;71.29;101651.28;4995847;28;46419;-69
2022/11/05 08:21:03;;;;;;;;;4.50;4.50;;;;;11.54;72.01;101608.63;4996002;28;45567;-69
2022/11/05 08:23:30;;;;;;;;;5.00;5.00;;;;;11.91;72.10;101645.06;4996236;28;45402;-69
2022/11/05 08:25:56;;;;;;;;;6.25;5.75;;;;;11.93;70.58;101645.88;4995066;28;45568;-69
2022/11/05 08:28:23;;;;;;;;;3.00;3.00;;;;;11.99;70.28;101646.53;4995839;28;45664;-69
2022/11/05 08:30:49;;;;;;;;;3.00;3.00;;;;;12.07;71.01;101647.00;4996165;28;45493;-69
2022/11/05 08:33:15;;;;;;;;;4.00;4.00;;;;;12.26;70.60;101654.94;4996248;28;45424;-69
2022/11/05 08:35:41;;;;;;;;;7.50;4.00;;;;;12.42;69.31;101653.19;4995964;28;45397;-69
2022/11/05 08:38:12;;;;;;;;;4.75;4.00;;;;;12.41;69.64;101653.28;4996121;28;45484;-71
2022/11/05 08:40:38;;;;;;;;;7.25;7.25;;;;;12.64;68.98;101654.72;4996068;28;45427;-69
2022/11/05 08:43:06;;;;;;;;;5.75;5.00;;;;;12.42;68.69;101607.69;4995711;28;45410;-69
2022/11/05 08:45:32;;;;;;;;;5.00;5.00;;;;;12.74;68.08;101650.63;4996180;28;45424;-68
2022/11/05 08:48:05;;;;;;;;;4.00;4.00;;;;;12.73;68.09;101656.91;4995798;28;45428;-69
2022/11/05 08:50:31;;;;;;;;;4.00;2.75;;;;;12.85;67.81;101644.69;4995758;28;45406;-70
2022/11/05 08:52:56;;;;;;;;;1.75;1.25;;;;;12.85;68.44;101662.53;4995943;28;45647;-69
2022/11/05 08:55:22;;;;;;;;;3.50;3.50;;;;;12.89;67.53;101674.81;4995693;28;45568;-70
2022/11/05 08:57:47;;;;;;;;;5.00;4.00;;;;;12.84;67.41;101666.19;4995296;28;46405;-70
2022/11/05 09:00:14;;;;;;;;;5.25;5.25;;;;;12.98;68.43;101684.16;4995746;28;45441;-69
2022/11/05 09:02:40;;;;;;;;;5.00;3.00;;;;;12.90;67.66;101645.28;4995952;28;45306;-70
2022/11/05 09:05:06;;;;;;;;;3.00;2.25;;;;;13.09;67.99;101658.53;4995748;28;45620;-69
2022/11/05 09:07:31;;;;;;;;;3.50;3.50;;;;;12.79;67.25;101621.78;4995270;28;45467;-68
2022/11/05 09:09:57;;;;;;;;;2.50;2.25;;;;;13.04;67.18;101671.31;5027328;28;45480;-68
2022/11/05 09:12:22;;;;;;;;;5.50;3.00;;;;;13.01;67.06;101673.28;4995481;28;45414;-69
2022/11/05 09:14:48;;;;;;;;;2.00;0.50;;;;;12.93;66.72;101652.31;4995270;28;45549;-69
2022/11/05 09:17:19;;;;;;;;;1.00;1.00;;;;;12.88;66.89;101649.00;4994108;28;46569;-68
2022/11/05 09:19:44;;;;;;;;;3.00;3.00;;;;;12.66;66.99;101620.72;4995433;28;45565;-68
2022/11/05 09:22:11;;;;;;;;;4.50;3.50;;;;;12.84;67.45;101618.84;4995464;28;45397;-68
2022/11/05 09:24:38;;;;;;;;;2.75;1.75;;;;;13.21;66.57;101662.34;4994325;28;45408;-68
2022/11/05 09:27:03;;;;;;;;;3.00;3.00;;;;;13.39;66.67;101652.44;4994683;28;47506;-68
2022/11/05 09:29:29;;;;;;;;;2.50;2.00;;;;;12.79;65.27;101525.41;4993710;28;45404;-70
2022/11/05 09:31:54;;;;;;;;;2.25;2.25;;;;;13.56;64.45;101635.38;4994187;28;45399;-68
2022/11/05 09:34:19;;;;;;;;;1.75;1.75;;;;;13.58;65.42;101649.56;5010262;28;45587;-69
2022/11/05 09:36:45;;;;;;;;;2.00;2.00;;;;;13.62;64.06;101644.91;4994628;28;46104;-69
2022/11/05 09:39:10;;;;;;;;;1.00;1.00;;;;;13.77;63.98;101649.34;4994910;28;45382;-69
2022/11/05 09:41:40;;;;;;;;;2.50;2.50;;;;;13.65;65.27;101625.94;4994849;28;45421;-69
2022/11/05 09:44:19;;;;;;;;;2.25;2.25;;;;;13.88;63.95;101653.22;4993929;28;45343;-69
2022/11/05 09:46:49;;;;;;;;;4.25;2.25;;;;;13.46;64.61;101599.34;4993647;28;46158;-69
2022/11/05 09:49:53;;;;;;;;;3.00;3.00;;;;;13.80;64.09;101659.88;4994541;28;45438;-69
2022/11/05 09:52:26;;;;;;;;;2.75;1.00;;;;;13.69;63.52;101651.63;4933995;28;45398;-68
2022/11/05 09:54:54;;;;;;;;;4.00;1.75;;;;;13.49;62.75;101646.56;4933743;28;45520;-68
2022/11/05 09:57:24;;;;;;;;;5.00;2.50;;;;;13.45;63.98;101664.63;4933679;28;45898;-68
2022/11/05 09:59:56;;;;;;;;;2.00;1.00;;;;;13.50;63.71;101659.00;4933452;28;46000;-68
2022/11/05 10:02:25;;;;;;;;;4.00;2.00;;;;;13.50;64.40;101653.66;4934157;28;45306;-68
2022/11/05 10:04:55;;;;;;;;;3.75;2.00;;;;;13.32;63.38;101610.84;4933975;28;45622;-68
2022/11/05 10:07:25;;;;;;;;;3.00;3.00;;;;;13.65;63.16;101663.47;4933327;28;45545;-68
2022/11/05 10:09:56;;;;;;;;;5.75;4.75;;;;;13.65;64.00;101647.38;4933486;28;45469;-69
2022/11/05 10:12:35;;;;;;;;;3.00;3.00;;;;;13.79;63.85;101643.88;4933691;28;45819;-69
2022/11/05 10:15:29;;;;;;;;;2.75;2.75;;;;;13.89;64.27;101649.59;4933681;28;45413;-68
2022/11/05 10:18:01;;;;;;;;;1.50;1.50;;;;;13.84;63.37;101622.19;4933700;28;46270;-69
2022/11/05 10:20:35;;;;;;;;;3.25;3.00;;;;;13.87;63.38;101635.41;4933998;28;45385;-68
2022/11/05 10:23:10;;;;;;;;;2.75;2.75;;;;;13.92;64.27;101636.00;4933674;28;45435;-68
2022/11/05 10:25:38;;;;;;;;;2.75;1.00;;;;;14.01;63.54;101643.50;4933595;28;45464;-69
2022/11/05 10:28:05;;;;;;;;;5.00;2.50;;;;;13.98;63.76;101649.03;4958460;28;47349;-68
2022/11/05 10:30:31;;;;;;;;;2.50;2.00;;;;;13.85;63.17;101656.06;4974658;28;45451;-68
2022/11/05 10:33:00;;;;;;;;;3.00;2.50;;;;;13.80;63.73;101646.47;4974893;28;45418;-69
2022/11/05 10:35:29;;;;;;;;;2.00;2.00;;;;;13.62;63.65;101623.44;4974850;28;45388;-69
2022/11/05 10:37:56;;;;;;;;;2.00;2.00;;;;;13.66;63.71;101627.69;4974001;28;45425;-68
2022/11/05 10:40:42;;;;;;;;;3.50;2.25;;;;;13.70;63.72;101665.88;4974522;28;45457;-69
2022/11/05 10:43:18;;;;;;;;;2.25;2.00;;;;;13.74;63.66;101667.41;4973294;28;45411;-69
2022/11/05 10:46:09;;;;;;;;;1.00;1.00;;;;;13.78;63.24;101667.19;4974804;28;45335;-69
2022/11/05 10:48:54;;;;;;;;;4.00;2.00;;;;;13.71;63.35;101665.81;4976290;28;45455;-69
2022/11/05 10:51:20;;;;;;;;;3.25;1.75;;;;;13.67;63.68;101633.88;4977843;28;45411;-70
2022/11/05 10:53:59;;;;;;;;;3.75;2.00;;;;;13.93;63.68;101657.38;4977925;28;45483;-70
2022/11/05 10:56:42;;;;;;;;;2.00;2.00;;;;;13.93;64.67;101651.16;4978915;28;45346;-69
2022/11/05 10:59:23;;;;;;;;;3.00;3.00;;;;;13.97;63.90;101650.00;4977854;28;46131;-69
2022/11/05 11:02:15;;;;;;;;;3.00;3.00;;;;;14.18;64.31;101663.09;4978048;28;45563;-66
2022/11/05 11:04:41;;;;;;;;;2.00;2.00;;;;;14.18;63.73;101655.03;4977762;28;45304;-67
2022/11/05 11:07:20;;;;;;;;;2.25;2.25;;;;;14.01;63.62;101626.53;4977489;28;45236;-66
2022/11/05 11:09:48;;;;;;;;;2.50;2.00;;;;;14.01;63.90;101635.47;4977394;28;45475;-67
2022/11/05 11:12:19;;;;;;;;;5.00;2.50;;;;;14.06;64.25;101657.50;4980510;28;45307;-67
2022/11/05 11:15:11;;;;;;;;;2.00;2.00;;;;;14.08;64.11;101636.81;4997290;28;45400;-67
2022/11/05 11:17:36;;;;;;;;;2.00;1.00;;;;;14.03;64.21;101613.91;4997039;28;45661;-67
2022/11/05 11:20:31;;;;;;;;;3.00;2.00;;;;;14.25;64.39;101651.03;4995631;28;47204;-67
2022/11/05 11:23:02;;;;;;;;;1.50;1.00;;;;;14.31;64.65;101647.97;4996248;28;45469;-67
2022/11/05 11:25:35;;;;;;;;;2.00;2.00;;;;;14.25;63.54;101640.28;4997098;28;45455;-67
2022/11/05 11:28:03;;;;;;;;;2.00;2.00;;;;;14.15;64.52;101623.03;4996898;28;45503;-66
2022/11/05 11:30:29;;;;;;;;;1.00;1.00;;;;;14.12;64.03;101594.56;4996894;28;46276;-67
2022/11/05 11:33:04;;;;;;;;;0.00;0.00;;;;;14.46;63.79;101632.75;4996965;28;45402;-67
2022/11/05 11:35:29;;;;;;;;;2.50;1.50;;;;;14.52;63.46;101636.88;4997235;28;45437;-66
2022/11/05 11:37:56;;;;;;;;;6.00;2.00;;;;;14.53;63.95;101634.09;4996656;28;45430;-66
2022/11/05 11:40:31;;;;;;;;;1.00;1.00;;;;;14.63;63.67;101621.88;4996721;28;45456;-67
2022/11/05 11:43:01;;;;;;;;;1.50;1.50;;;;;14.36;63.76;101562.69;4996674;28;45402;-67
2022/11/05 11:45:30;;;;;;;;;0.75;0.75;;;;;14.77;62.84;101618.31;4996658;28;45454;-66
2022/11/05 11:47:56;;;;;;;;;2.00;2.00;;;;;14.79;63.25;101613.72;4996505;28;45573;-66
2022/11/05 11:50:43;;;;;;;;;2.00;2.00;;;;;14.86;62.22;101615.97;4996892;28;46374;-66
2022/11/05 11:53:20;;;;;;;;;1.75;1.75;;;;;14.78;62.76;101621.88;4996879;28;45492;-67
2022/11/05 11:55:55;;;;;;;;;2.00;2.00;;;;;14.75;61.46;101617.56;4996528;28;45405;-67
2022/11/05 11:58:39;;;;;;;;;1.50;1.50;;;;;14.18;62.95;101516.38;4996558;28;45504;-67
2022/11/05 12:01:32;;;;;;;;;1.00;1.00;;;;;14.92;62.18;101615.59;4996435;28;45653;-68
2022/11/05 12:04:23;;;;;;;;;1.00;1.00;;;;;14.93;61.80;101614.66;4996740;28;45561;-67
2022/11/05 12:07:17;;;;;;;;;1.00;0.00;;;;;15.08;61.55;101610.13;4995310;28;45499;-67
2022/11/05 12:09:55;;;;;;;;;2.00;2.00;;;;;14.91;59.98;101612.06;4954576;28;45453;-66
2022/11/05 12:12:35;;;;;;;;;1.00;1.00;;;;;14.75;61.40;101603.25;4954671;28;45539;-67
2022/11/05 12:15:03;;;;;;;;;1.25;1.25;;;;;14.66;61.17;101606.50;4955079;28;45519;-67
2022/11/05 12:17:44;;;;;;;;;1.00;1.00;;;;;14.68;60.94;101600.06;4955941;28;45469;-67
2022/11/05 12:20:19;;;;;;;;;1.00;1.00;;;;;14.54;60.13;101590.19;4954866;28;45488;-67
2022/11/05 12:23:11;;;;;;;;;2.00;1.00;;;;;14.54;59.88;101600.06;4954581;28;45584;-66